createdAt,value
2022-11-23T00:01:30.086Z,2.40
2022-11-23T00:03:58.770Z,2.07
2022-11-23T00:06:26.026Z,2.10
2022-11-23T00:08:53.252Z,2.03
2022-11-23T00:11:21.255Z,2.27
2022-11-23T00:13:47.714Z,2.30
2022-11-23T00:16:16.508Z,2.37
2022-11-23T00:18:43.105Z,2.20
2022-11-23T00:21:12.262Z,2.67
2022-11-23T00:23:38.887Z,2.27
2022-11-23T00:26:06.234Z,1.83
2022-11-23T00:28:33.370Z,2.83
2022-11-23T00:30:59.788Z,2.00
2022-11-23T00:33:26.243Z,3.37
2022-11-23T00:36:03.429Z,2.53
2022-11-23T00:38:30.351Z,2.50
2022-11-23T00:41:06.230Z,1.83
2022-11-23T00:43:33.047Z,1.63
2022-11-23T00:46:19.452Z,2.20
2022-11-23T00:48:47.972Z,2.20
2022-11-23T00:51:16.947Z,2.00
2022-11-23T00:53:44.201Z,1.90
2022-11-23T00:56:11.192Z,1.83
2022-11-23T00:58:41.001Z,1.70
2022-11-23T01:01:13.097Z,2.00
2022-11-23T01:03:42.573Z,2.10
2022-11-23T01:06:11.847Z,1.73
2022-11-23T01:08:39.215Z,2.40
2022-11-23T01:11:08.598Z,1.70
2022-11-23T01:13:36.042Z,2.00
2022-11-23T01:16:02.498Z,1.60
2022-11-23T01:18:28.989Z,1.87
2022-11-23T01:20:55.442Z,1.60
2022-11-23T01:23:21.923Z,1.80
2022-11-23T01:25:51.918Z,2.13
2022-11-23T01:28:20.732Z,1.67
2022-11-23T01:30:47.150Z,1.87
2022-11-23T01:33:13.627Z,1.90
2022-11-23T01:35:40.074Z,2.40
2022-11-23T01:38:06.551Z,1.90
2022-11-23T01:40:41.042Z,1.80
2022-11-23T01:43:15.330Z,1.97
2022-11-23T01:46:01.517Z,1.67
2022-11-23T01:48:38.024Z,1.57
2022-11-23T01:51:09.501Z,1.60
2022-11-23T01:53:37.353Z,1.53
2022-11-23T01:56:06.954Z,1.70
2022-11-23T01:58:37.765Z,1.80
2022-11-23T02:01:07.223Z,1.93
2022-11-23T02:03:36.598Z,1.40
2022-11-23T02:06:07.698Z,1.47
2022-11-23T02:08:34.947Z,1.60
2022-11-23T02:11:02.001Z,1.50
2022-11-23T02:13:28.953Z,1.60
2022-11-23T02:15:57.619Z,1.50
2022-11-23T02:18:27.191Z,1.40
2022-11-23T02:20:54.067Z,2.10
2022-11-23T02:23:32.351Z,1.77
2022-11-23T02:26:31.409Z,1.60
2022-11-23T02:29:03.958Z,1.73
2022-11-23T02:31:30.489Z,1.70
2022-11-23T02:33:56.949Z,1.80
2022-11-23T02:36:32.496Z,1.97
2022-11-23T02:39:01.563Z,1.70
2022-11-23T02:41:28.013Z,1.90
2022-11-23T02:43:57.312Z,2.20
2022-11-23T02:46:23.794Z,2.30
2022-11-23T02:48:50.194Z,1.50
2022-11-23T02:51:16.637Z,2.10
2022-11-23T02:53:43.013Z,2.80
2022-11-23T02:56:09.455Z,1.70
2022-11-23T02:58:35.889Z,1.57
2022-11-23T03:01:02.345Z,1.87
2022-11-23T03:03:28.799Z,1.60
2022-11-23T03:05:55.309Z,2.40
2022-11-23T03:08:21.718Z,2.10
2022-11-23T03:10:48.173Z,2.10
2022-11-23T03:13:14.618Z,2.00
2022-11-23T03:15:41.040Z,1.83
2022-11-23T03:18:07.572Z,1.77
2022-11-23T03:20:34.037Z,2.00
2022-11-23T03:23:00.450Z,2.13
2022-11-23T03:25:26.905Z,1.90
2022-11-23T03:27:53.432Z,2.20
2022-11-23T03:30:19.963Z,2.03
2022-11-23T03:32:46.375Z,2.13
2022-11-23T03:35:12.850Z,1.90
2022-11-23T03:37:39.285Z,1.60
2022-11-23T03:40:06.493Z,2.10
2022-11-23T03:42:32.882Z,1.80
2022-11-23T03:44:59.302Z,1.63
2022-11-23T03:47:25.721Z,1.97
2022-11-23T03:49:52.145Z,2.60
2022-11-23T03:52:18.643Z,3.03
2022-11-23T03:54:45.158Z,2.13
2022-11-23T03:57:11.541Z,2.30
2022-11-23T03:59:37.946Z,1.90
2022-11-23T04:02:04.433Z,2.03
2022-11-23T04:04:30.829Z,2.37
2022-11-23T04:06:57.275Z,2.10
2022-11-23T04:09:23.905Z,2.20
2022-11-23T04:11:50.515Z,2.10
2022-11-23T04:14:16.977Z,2.73
2022-11-23T04:16:43.495Z,2.77
2022-11-23T04:19:09.921Z,2.30
2022-11-23T04:21:37.366Z,2.17
2022-11-23T04:24:04.015Z,2.73
2022-11-23T04:26:30.459Z,2.23
2022-11-23T04:28:56.914Z,2.50
2022-11-23T04:31:23.347Z,2.67
2022-11-23T04:33:49.963Z,2.03
2022-11-23T04:36:16.397Z,2.67
2022-11-23T04:38:43.205Z,2.30
2022-11-23T04:41:10.401Z,2.73
2022-11-23T04:43:36.842Z,2.13
2022-11-23T04:46:03.588Z,2.50
2022-11-23T04:48:30.064Z,2.50
2022-11-23T04:50:56.540Z,2.47
2022-11-23T04:53:23.007Z,2.50
2022-11-23T04:55:49.469Z,2.60
2022-11-23T04:58:15.974Z,3.00
2022-11-23T05:00:42.460Z,2.70
2022-11-23T05:03:08.924Z,2.50
2022-11-23T05:05:37.999Z,2.90
2022-11-23T05:08:04.838Z,2.27
2022-11-23T05:10:31.289Z,2.97
2022-11-23T05:12:57.725Z,2.30
2022-11-23T05:15:24.200Z,2.43
2022-11-23T05:17:54.044Z,2.93
2022-11-23T05:20:23.229Z,2.70
2022-11-23T05:22:49.676Z,2.80
2022-11-23T05:25:16.073Z,3.67
2022-11-23T05:27:42.812Z,3.50
2022-11-23T05:30:09.691Z,8.80
2022-11-23T05:32:36.156Z,2.87
2022-11-23T05:35:02.622Z,3.60
2022-11-23T05:37:29.038Z,3.40
2022-11-23T05:39:55.458Z,3.10
2022-11-23T05:42:21.967Z,3.23
2022-11-23T05:44:48.374Z,2.40
2022-11-23T05:47:14.789Z,2.30
2022-11-23T05:49:41.233Z,3.17
2022-11-23T05:52:07.706Z,3.00
2022-11-23T05:54:34.226Z,2.80
2022-11-23T05:57:00.883Z,3.03
2022-11-23T05:59:27.384Z,3.40
2022-11-23T06:01:53.808Z,3.00
2022-11-23T06:04:20.349Z,2.53
2022-11-23T06:06:46.945Z,2.70
2022-11-23T06:09:13.390Z,3.40
2022-11-23T06:11:39.876Z,2.50
2022-11-23T06:14:08.809Z,2.50
2022-11-23T06:16:39.243Z,2.70
2022-11-23T06:19:05.957Z,2.80
2022-11-23T06:21:32.354Z,2.83
2022-11-23T06:23:58.826Z,2.00
2022-11-23T06:26:25.807Z,2.70
2022-11-23T06:28:52.234Z,2.80
2022-11-23T06:31:18.712Z,3.00
2022-11-23T06:33:45.182Z,2.73
2022-11-23T06:36:12.423Z,3.23
2022-11-23T06:38:38.906Z,3.07
2022-11-23T06:41:05.589Z,3.10
2022-11-23T06:43:32.301Z,2.90
2022-11-23T06:45:58.852Z,3.20
2022-11-23T06:48:25.301Z,2.77
2022-11-23T06:50:51.843Z,3.07
2022-11-23T06:53:18.285Z,3.00
2022-11-23T06:55:44.720Z,3.53
2022-11-23T06:58:11.246Z,2.70
2022-11-23T07:00:37.629Z,3.00
2022-11-23T07:03:04.078Z,3.20
2022-11-23T07:05:30.532Z,2.50
2022-11-23T07:07:57.267Z,3.27
2022-11-23T07:10:23.772Z,3.07
2022-11-23T07:12:50.226Z,3.77
2022-11-23T07:15:16.713Z,2.83
2022-11-23T07:17:44.444Z,3.10
2022-11-23T07:20:12.469Z,3.60
2022-11-23T07:22:39.429Z,3.20
2022-11-23T07:25:06.206Z,3.17
2022-11-23T07:27:32.653Z,5.60
2022-11-23T07:29:59.153Z,6.80
2022-11-23T07:32:25.693Z,3.87
2022-11-23T07:34:52.119Z,2.67
2022-11-23T07:37:18.574Z,3.07
2022-11-23T07:40:01.043Z,2.60
2022-11-23T07:42:34.501Z,2.80
2022-11-23T07:45:05.191Z,3.20
2022-11-23T07:47:31.863Z,2.97
2022-11-23T07:49:58.343Z,3.00
2022-11-23T07:52:25.557Z,2.80
2022-11-23T07:54:52.025Z,3.23
2022-11-23T07:57:18.501Z,4.60
2022-11-23T07:59:44.998Z,2.80
2022-11-23T08:02:15.093Z,3.70
2022-11-23T08:04:41.674Z,3.20
2022-11-23T08:07:08.189Z,3.30
2022-11-23T08:09:34.861Z,2.50
2022-11-23T08:12:01.372Z,2.73
2022-11-23T08:14:27.786Z,2.63
2022-11-23T08:16:54.288Z,2.67
2022-11-23T08:19:20.753Z,2.43
2022-11-23T08:21:47.168Z,2.70
2022-11-23T08:24:13.642Z,2.93
2022-11-23T08:26:40.085Z,2.60
2022-11-23T08:29:06.677Z,2.70
2022-11-23T08:31:33.140Z,3.17
2022-11-23T08:34:03.225Z,3.97
2022-11-23T08:36:30.277Z,3.03
2022-11-23T08:38:56.749Z,3.33
2022-11-23T08:41:23.267Z,3.57
2022-11-23T08:43:51.284Z,2.70
2022-11-23T08:46:17.887Z,3.90
2022-11-23T08:48:44.402Z,2.50
2022-11-23T08:51:11.533Z,3.50
2022-11-23T08:53:38.400Z,3.40
2022-11-23T08:56:06.643Z,3.20
2022-11-23T08:58:33.195Z,3.97
2022-11-23T09:00:59.600Z,3.10
2022-11-23T09:03:26.145Z,3.30
2022-11-23T09:05:54.293Z,3.43
2022-11-23T09:08:20.711Z,3.83
2022-11-23T09:10:47.100Z,4.33
2022-11-23T09:13:13.660Z,3.40
2022-11-23T09:15:40.199Z,4.03
2022-11-23T09:18:06.668Z,3.40
2022-11-23T09:20:33.246Z,3.10
2022-11-23T09:22:59.695Z,3.67
2022-11-23T09:25:26.221Z,2.87
2022-11-23T09:28:00.170Z,3.00
2022-11-23T09:30:27.796Z,3.43
2022-11-23T09:32:58.248Z,4.23
2022-11-23T09:35:25.326Z,3.97
2022-11-23T09:37:56.902Z,3.03
2022-11-23T09:40:25.369Z,4.43
2022-11-23T09:43:07.146Z,3.40
2022-11-23T09:46:05.847Z,3.13
2022-11-23T09:48:45.800Z,4.23
2022-11-23T09:51:21.181Z,3.40
2022-11-23T09:54:04.127Z,3.80
2022-11-23T09:56:35.101Z,3.90
2022-11-23T09:59:30.969Z,3.30
2022-11-23T10:01:58.775Z,3.10
2022-11-23T10:04:25.537Z,4.20
2022-11-23T10:07:03.286Z,2.87
2022-11-23T10:09:53.928Z,2.90
2022-11-23T10:12:40.129Z,3.90
2022-11-23T10:15:20.739Z,3.00
2022-11-23T10:18:20.903Z,3.00
2022-11-23T10:21:09.263Z,3.50
2022-11-23T10:23:48.260Z,3.17
2022-11-23T10:26:17.837Z,3.03
2022-11-23T10:28:45.910Z,3.10
2022-11-23T10:31:21.028Z,3.50
2022-11-23T10:34:12.923Z,3.50
2022-11-23T10:36:41.065Z,4.30
2022-11-23T10:39:22.898Z,3.47
2022-11-23T10:41:53.548Z,3.17
2022-11-23T10:44:31.305Z,3.00
2022-11-23T10:46:59.268Z,4.13
2022-11-23T10:49:34.079Z,3.40
2022-11-23T10:52:06.899Z,3.00
2022-11-23T10:54:38.688Z,2.93
2022-11-23T10:57:44.256Z,3.53
2022-11-23T11:00:10.988Z,2.80
2022-11-23T11:02:41.249Z,3.00
2022-11-23T11:05:46.293Z,2.73
2022-11-23T11:08:21.516Z,3.00
2022-11-23T11:10:52.571Z,2.90
2022-11-23T11:13:26.846Z,3.13
2022-11-23T11:16:02.695Z,3.20
2022-11-23T11:18:34.951Z,2.60
2022-11-23T11:21:21.678Z,2.70
2022-11-23T11:23:54.279Z,2.83
2022-11-23T11:26:23.469Z,2.60
2022-11-23T11:28:53.266Z,3.03
2022-11-23T11:31:30.763Z,2.80
2022-11-23T11:34:16.627Z,2.50
2022-11-23T11:36:48.961Z,2.90
2022-11-23T11:39:25.961Z,3.07
2022-11-23T11:41:54.520Z,2.90
2022-11-23T11:44:26.890Z,2.73
2022-11-23T11:47:04.437Z,2.70
2022-11-23T11:49:37.607Z,3.00
2022-11-23T11:52:11.609Z,2.50
2022-11-23T11:54:49.970Z,2.40
2022-11-23T11:57:30.077Z,2.60
2022-11-23T11:59:58.302Z,3.10
2022-11-23T12:02:27.851Z,3.30
2022-11-23T12:05:14.089Z,2.63
2022-11-23T12:07:52.771Z,2.50
2022-11-23T12:10:27.951Z,2.90
2022-11-23T12:12:56.476Z,2.40
2022-11-23T12:15:50.212Z,2.90
2022-11-23T12:18:23.071Z,2.40
2022-11-23T12:21:06.800Z,2.07
2022-11-23T12:23:36.423Z,2.70
2022-11-23T12:26:21.560Z,2.87
2022-11-23T12:29:13.697Z,2.53
2022-11-23T12:31:49.490Z,2.60
2022-11-23T12:34:34.673Z,2.83
2022-11-23T12:37:21.280Z,3.10
2022-11-23T12:39:59.850Z,2.90
2022-11-23T12:42:44.458Z,2.70
2022-11-23T12:45:23.218Z,3.83
2022-11-23T12:48:07.467Z,2.90
2022-11-23T12:51:00.147Z,3.13
2022-11-23T12:53:45.500Z,2.93
2022-11-23T12:56:20.999Z,2.97
2022-11-23T12:58:49.037Z,2.83
2022-11-23T13:01:31.639Z,2.80
2022-11-23T13:04:33.535Z,3.80
2022-11-23T13:07:40.941Z,3.33
2022-11-23T13:10:20.352Z,3.00
2022-11-23T13:13:12.509Z,3.10
2022-11-23T13:16:17.784Z,2.10
2022-11-23T13:19:23.020Z,2.77
2022-11-23T13:21:50.092Z,2.47
2022-11-23T13:24:27.800Z,2.50
2022-11-23T13:27:12.779Z,2.30
2022-11-23T13:29:47.330Z,2.27
2022-11-23T13:32:38.748Z,2.40
2022-11-23T13:35:17.522Z,3.40
2022-11-23T13:37:56.220Z,2.43
2022-11-23T13:40:25.740Z,2.30
2022-11-23T13:42:54.109Z,2.20
2022-11-23T13:45:20.501Z,2.13
2022-11-23T13:48:08.754Z,2.07
2022-11-23T13:50:37.693Z,2.50
2022-11-23T13:53:22.669Z,2.27
2022-11-23T13:55:52.492Z,3.07
2022-11-23T13:58:25.152Z,2.47
2022-11-23T14:00:59.453Z,2.10
2022-11-23T14:03:52.266Z,2.40
2022-11-23T14:06:36.995Z,2.30
2022-11-23T14:09:12.744Z,2.20
2022-11-23T14:12:09.391Z,3.00
2022-11-23T14:14:43.997Z,3.20
2022-11-23T14:17:13.465Z,3.27
2022-11-23T14:19:46.129Z,3.37
2022-11-23T14:22:38.920Z,3.03
2022-11-23T14:25:34.484Z,2.63
2022-11-23T14:28:29.124Z,3.57
2022-11-23T14:31:12.422Z,3.17
2022-11-23T14:34:00.505Z,3.00
2022-11-23T14:36:46.002Z,3.60
2022-11-23T14:39:30.738Z,3.07
2022-11-23T14:42:05.358Z,7.47
2022-11-23T14:44:38.439Z,3.40
2022-11-23T14:47:10.793Z,4.50
2022-11-23T14:49:48.101Z,3.53
2022-11-23T14:52:19.596Z,2.80
2022-11-23T14:54:49.843Z,4.27
2022-11-23T14:57:18.184Z,3.30
2022-11-23T14:59:48.888Z,3.07
2022-11-23T15:02:23.322Z,2.70
2022-11-23T15:05:12.616Z,2.97
2022-11-23T15:07:43.791Z,2.60
2022-11-23T15:10:25.480Z,3.30
2022-11-23T15:12:51.967Z,2.20
2022-11-23T15:15:20.304Z,2.83
2022-11-23T15:17:56.100Z,3.30
2022-11-23T15:20:26.818Z,3.50
2022-11-23T15:22:53.418Z,2.73
2022-11-23T15:25:20.141Z,2.47
2022-11-23T15:27:50.838Z,2.90
2022-11-23T15:30:37.306Z,2.40
2022-11-23T15:33:11.522Z,2.43
2022-11-23T15:35:39.725Z,3.13
2022-11-23T15:38:17.755Z,3.03
2022-11-23T15:40:49.424Z,3.17
2022-11-23T15:43:19.009Z,3.10
2022-11-23T15:45:45.431Z,2.90
2022-11-23T15:48:18.485Z,2.80
2022-11-23T15:50:53.800Z,2.60
2022-11-23T15:53:25.087Z,2.77
2022-11-23T15:55:54.284Z,2.90
2022-11-23T15:58:21.838Z,3.07
2022-11-23T16:00:51.642Z,3.13
2022-11-23T16:03:29.302Z,3.20
2022-11-23T16:06:11.181Z,2.93
2022-11-23T16:08:40.639Z,3.07
2022-11-23T16:11:31.116Z,3.30
2022-11-23T16:14:19.602Z,4.20
2022-11-23T16:16:58.268Z,2.90
2022-11-23T16:19:30.487Z,3.13
2022-11-23T16:22:02.858Z,3.50
2022-11-23T16:24:32.271Z,3.37
2022-11-23T16:26:59.447Z,3.00
2022-11-23T16:29:36.205Z,3.10
2022-11-23T16:32:06.848Z,3.20
2022-11-23T16:34:33.669Z,3.20
2022-11-23T16:37:03.852Z,3.00
2022-11-23T16:39:30.391Z,2.67
2022-11-23T16:41:56.866Z,2.73
2022-11-23T16:44:23.290Z,2.63
2022-11-23T16:46:49.841Z,2.83
2022-11-23T16:49:23.272Z,2.30
2022-11-23T16:51:57.236Z,2.87
2022-11-23T16:54:25.337Z,2.60
2022-11-23T16:56:52.770Z,2.93
2022-11-23T16:59:19.662Z,2.47
2022-11-23T17:01:51.434Z,3.63
2022-11-23T17:04:22.162Z,2.90
2022-11-23T17:06:49.007Z,2.70
2022-11-23T17:09:15.389Z,3.20
2022-11-23T17:11:45.104Z,3.23
2022-11-23T17:14:18.923Z,2.70
2022-11-23T17:16:46.949Z,3.47
2022-11-23T17:19:18.974Z,3.03
2022-11-23T17:21:45.452Z,3.47
2022-11-23T17:24:13.774Z,2.73
2022-11-23T17:26:46.487Z,2.43
2022-11-23T17:29:19.557Z,3.33
2022-11-23T17:31:47.227Z,5.00
2022-11-23T17:34:14.970Z,7.80
2022-11-23T17:36:43.112Z,3.57
2022-11-23T17:39:30.010Z,3.40
2022-11-23T17:42:03.095Z,3.27
2022-11-23T17:44:31.235Z,2.97
2022-11-23T17:47:00.097Z,3.30
2022-11-23T17:49:28.323Z,3.00
2022-11-23T17:51:55.758Z,2.70
2022-11-23T17:54:25.309Z,5.60
2022-11-23T17:56:52.127Z,3.13
2022-11-23T17:59:19.074Z,4.20
2022-11-23T18:01:45.697Z,4.10
2022-11-23T18:04:12.259Z,6.90
2022-11-23T18:06:38.882Z,4.20
2022-11-23T18:09:06.538Z,4.00
2022-11-23T18:11:33.016Z,3.97
2022-11-23T18:13:59.501Z,2.20
2022-11-23T18:16:26.081Z,1.93
2022-11-23T18:18:52.619Z,2.73
2022-11-23T18:21:19.176Z,2.30
2022-11-23T18:23:45.723Z,2.33
2022-11-23T18:26:21.236Z,2.50
2022-11-23T18:28:48.852Z,2.40
2022-11-23T18:31:16.548Z,2.73
2022-11-23T18:33:43.298Z,2.40
2022-11-23T18:36:10.595Z,3.20
2022-11-23T18:38:38.097Z,3.23
2022-11-23T18:41:05.332Z,3.10
2022-11-23T18:43:31.989Z,3.80
2022-11-23T18:45:59.185Z,5.30
2022-11-23T18:48:25.778Z,3.70
2022-11-23T18:50:54.151Z,3.73
2022-11-23T18:53:20.641Z,4.40
2022-11-23T18:55:47.135Z,3.90
2022-11-23T18:58:13.584Z,4.27
2022-11-23T19:00:40.178Z,5.17
2022-11-23T19:03:06.747Z,4.83
2022-11-23T19:05:34.862Z,5.10
2022-11-23T19:08:13.670Z,4.37
2022-11-23T19:10:40.123Z,4.70
2022-11-23T19:13:06.587Z,5.40
2022-11-23T19:15:33.762Z,5.20
2022-11-23T19:18:00.808Z,4.87
2022-11-23T19:20:29.140Z,4.80
2022-11-23T19:22:55.981Z,5.60
2022-11-23T19:25:22.418Z,5.23
2022-11-23T19:27:51.155Z,5.27
2022-11-23T19:30:17.649Z,5.43
2022-11-23T19:32:44.330Z,5.50
2022-11-23T19:35:10.822Z,5.17
2022-11-23T19:37:37.319Z,4.80
2022-11-23T19:40:04.230Z,4.83
2022-11-23T19:42:30.712Z,4.53
2022-11-23T19:44:57.173Z,5.03
2022-11-23T19:47:23.602Z,4.83
2022-11-23T19:49:50.130Z,5.03
2022-11-23T19:52:16.603Z,4.63
2022-11-23T19:54:43.045Z,5.23
2022-11-23T19:57:09.468Z,5.50
2022-11-23T19:59:36.179Z,5.13
2022-11-23T20:02:02.913Z,6.53
2022-11-23T20:04:29.728Z,4.90
2022-11-23T20:06:56.515Z,4.73
2022-11-23T20:09:23.918Z,4.70
2022-11-23T20:11:51.408Z,4.83
2022-11-23T20:14:18.375Z,4.70
2022-11-23T20:16:44.966Z,5.20
2022-11-23T20:19:11.690Z,5.30
2022-11-23T20:21:38.382Z,4.97
2022-11-23T20:24:07.686Z,4.97
2022-11-23T20:26:38.742Z,4.60
2022-11-23T20:29:06.311Z,5.70
2022-11-23T20:31:33.823Z,5.70
2022-11-23T20:34:01.036Z,5.60
2022-11-23T20:36:32.422Z,4.50
2022-11-23T20:39:01.882Z,4.77
2022-11-23T20:41:30.680Z,4.90
2022-11-23T20:44:10.969Z,5.47
2022-11-23T20:47:00.460Z,5.13
2022-11-23T20:49:23.994Z,5.33
2022-11-23T20:51:50.520Z,5.37
2022-11-23T20:54:17.016Z,4.43
2022-11-23T20:56:43.481Z,4.53
2022-11-23T20:59:12.040Z,5.10
2022-11-23T21:01:40.662Z,4.40
2022-11-23T21:04:08.814Z,4.80
2022-11-23T21:06:38.976Z,4.53
2022-11-23T21:09:07.680Z,4.70
2022-11-23T21:11:52.632Z,4.93
2022-11-23T21:14:24.617Z,4.03
2022-11-23T21:16:54.969Z,5.63
2022-11-23T21:19:35.937Z,4.90
2022-11-23T21:22:05.260Z,4.70
2022-11-23T21:24:32.270Z,4.63
2022-11-23T21:26:59.019Z,4.37
2022-11-23T21:29:26.176Z,4.23
2022-11-23T21:31:52.780Z,5.20
2022-11-23T21:34:22.085Z,4.50
2022-11-23T21:36:49.814Z,4.37
2022-11-23T21:39:17.384Z,4.50
2022-11-23T21:41:44.027Z,3.83
2022-11-23T21:44:11.170Z,3.97
2022-11-23T21:46:39.652Z,4.50
2022-11-23T21:49:06.772Z,4.90
2022-11-23T21:51:33.769Z,5.07
2022-11-23T21:54:03.116Z,5.20
2022-11-23T21:56:30.227Z,4.40
2022-11-23T21:58:57.290Z,4.40
2022-11-23T22:01:32.462Z,4.43
2022-11-23T22:04:02.005Z,4.30
2022-11-23T22:06:28.854Z,4.77
2022-11-23T22:08:59.766Z,5.60
2022-11-23T22:11:33.165Z,5.93
2022-11-23T22:14:02.169Z,5.43
2022-11-23T22:16:31.343Z,5.40
2022-11-23T22:18:59.107Z,4.83
2022-11-23T22:21:33.647Z,5.23
2022-11-23T22:24:00.178Z,5.13
2022-11-23T22:26:27.779Z,5.60
2022-11-23T22:28:55.427Z,4.60
2022-11-23T22:31:24.767Z,5.10
2022-11-23T22:33:53.282Z,5.73
2022-11-23T22:36:22.615Z,5.60
2022-11-23T22:39:01.934Z,4.60
2022-11-23T22:41:29.869Z,5.60
2022-11-23T22:43:57.044Z,4.10
2022-11-23T22:46:24.611Z,4.90
2022-11-23T22:48:52.326Z,4.50
2022-11-23T22:51:22.891Z,4.90
2022-11-23T22:53:57.193Z,5.07
2022-11-23T22:56:24.605Z,4.53
2022-11-23T22:58:51.114Z,5.40
2022-11-23T23:01:20.547Z,4.70
2022-11-23T23:03:47.791Z,4.03
2022-11-23T23:06:19.462Z,4.83
2022-11-23T23:08:47.200Z,4.77
2022-11-23T23:11:14.907Z,5.33
2022-11-23T23:13:42.083Z,5.00
2022-11-23T23:16:11.904Z,4.93
2022-11-23T23:18:39.027Z,5.00
2022-11-23T23:21:10.829Z,6.50
2022-11-23T23:23:38.707Z,6.97
2022-11-23T23:26:05.991Z,5.40
2022-11-23T23:28:32.526Z,6.53
2022-11-23T23:31:03.490Z,6.13
2022-11-23T23:33:32.264Z,4.90
2022-11-23T23:36:10.378Z,5.43
2022-11-23T23:38:38.310Z,5.70
2022-11-23T23:41:05.867Z,4.87
2022-11-23T23:43:32.593Z,5.17
2022-11-23T23:46:00.896Z,5.10
2022-11-23T23:48:35.819Z,5.13
2022-11-23T23:51:07.236Z,5.57
2022-11-23T23:53:35.124Z,4.90
2022-11-23T23:56:06.313Z,4.70
2022-11-23T23:58:32.846Z,4.60
